CYGW

Kuujjuarapik Airport

Kuujjuarapik, Quebec, Canada
METAR CYGW 251849Z AUTO 24011KT 3SM -RA BR OVC003 06/05 A2960 RMK SLP024
Observed Flight Rules
Sep-25 @ 18:49 UTC (15 minutes ago) Instrument Flight Rules
Wind Visibility Clouds Conditions
240° at 11 knots 3 miles
  • Overcast at 300' AGL
  • Light Rain
  • Mist
Temperatures Readings
Current 6°C / 43°F
Dewpoint 5°C / 41°F
Humidity 93%
Altimeter 29.6" Hg
Pressure 1002.4 hPa
Elevation 12
METAR CYGW 251849Z AUTO 24011KT 3SM -RA BR OVC003 06/05 A2960 RMK SLP024
Observed Flight Rules
Sep-25 @ 18:49 UTC
(15 minutes ago)
LIFR
Wind Visibility
240° at 11 knots 3 miles
Clouds
  • Overcast at 300' AGL
Conditions
  • Light Rain
  • Mist
Temperature Dewpoint
6°C / 43°F 5°C / 41°F
Humidity Altimeter Pressure
93% 29.6" Hg 1002.4 hPa